sensor_id;sensor_type;location;lat;lon;timestamp;P1;durP1;ratioP1;P2;durP2;ratioP2
25079;SDS011;13071;48.868;9.996;2023-12-14T00:02:01;1.92;;;1.52;;
25079;SDS011;13071;48.868;9.996;2023-12-14T00:04:29;1.80;;;1.35;;
25079;SDS011;13071;48.868;9.996;2023-12-14T00:06:55;2.20;;;1.33;;
25079;SDS011;13071;48.868;9.996;2023-12-14T00:09:22;1.33;;;1.23;;
25079;SDS011;13071;48.868;9.996;2023-12-14T00:11:48;1.38;;;1.30;;
25079;SDS011;13071;48.868;9.996;2023-12-14T00:14:15;1.45;;;1.30;;
25079;SDS011;13071;48.868;9.996;2023-12-14T00:16:41;1.48;;;1.23;;
25079;SDS011;13071;48.868;9.996;2023-12-14T00:19:07;1.40;;;1.30;;
25079;SDS011;13071;48.868;9.996;2023-12-14T00:21:35;2.10;;;1.50;;
25079;SDS011;13071;48.868;9.996;2023-12-14T00:24:01;5.90;;;1.60;;
25079;SDS011;13071;48.868;9.996;2023-12-14T00:26:28;1.58;;;1.38;;
25079;SDS011;13071;48.868;9.996;2023-12-14T00:28:54;2.67;;;1.58;;
25079;SDS011;13071;48.868;9.996;2023-12-14T00:31:21;1.48;;;1.38;;
25079;SDS011;13071;48.868;9.996;2023-12-14T00:33:47;2.15;;;1.40;;
25079;SDS011;13071;48.868;9.996;2023-12-14T00:36:17;1.63;;;1.05;;
25079;SDS011;13071;48.868;9.996;2023-12-14T00:38:45;2.40;;;1.50;;
25079;SDS011;13071;48.868;9.996;2023-12-14T00:41:11;1.20;;;1.10;;
25079;SDS011;13071;48.868;9.996;2023-12-14T00:43:38;1.33;;;1.23;;
25079;SDS011;13071;48.868;9.996;2023-12-14T00:46:04;1.25;;;1.15;;
25079;SDS011;13071;48.868;9.996;2023-12-14T00:48:30;1.55;;;1.45;;
25079;SDS011;13071;48.868;9.996;2023-12-14T00:50:57;1.50;;;1.40;;
25079;SDS011;13071;48.868;9.996;2023-12-14T00:53:23;1.75;;;1.65;;
25079;SDS011;13071;48.868;9.996;2023-12-14T00:55:51;2.00;;;1.40;;
25079;SDS011;13071;48.868;9.996;2023-12-14T00:58:18;2.42;;;1.60;;
25079;SDS011;13071;48.868;9.996;2023-12-14T01:00:44;1.88;;;1.50;;
25079;SDS011;13071;48.868;9.996;2023-12-14T01:03:10;1.63;;;1.52;;
25079;SDS011;13071;48.868;9.996;2023-12-14T01:05:37;1.55;;;1.40;;
25079;SDS011;13071;48.868;9.996;2023-12-14T01:08:03;3.33;;;1.80;;
25079;SDS011;13071;48.868;9.996;2023-12-14T01:10:30;2.70;;;1.92;;
25079;SDS011;13071;48.868;9.996;2023-12-14T01:12:59;3.15;;;2.30;;
25079;SDS011;13071;48.868;9.996;2023-12-14T01:15:25;2.72;;;2.05;;
25079;SDS011;13071;48.868;9.996;2023-12-14T01:17:51;2.15;;;1.65;;
25079;SDS011;13071;48.868;9.996;2023-12-14T01:20:18;3.13;;;1.85;;
25079;SDS011;13071;48.868;9.996;2023-12-14T01:22:44;2.45;;;1.85;;
25079;SDS011;13071;48.868;9.996;2023-12-14T01:25:11;2.35;;;1.85;;
25079;SDS011;13071;48.868;9.996;2023-12-14T01:27:37;2.33;;;1.75;;
25079;SDS011;13071;48.868;9.996;2023-12-14T01:30:06;3.92;;;2.10;;
25079;SDS011;13071;48.868;9.996;2023-12-14T01:32:32;2.90;;;2.28;;
25079;SDS011;13071;48.868;9.996;2023-12-14T01:34:59;3.33;;;2.47;;
25079;SDS011;13071;48.868;9.996;2023-12-14T01:37:25;3.58;;;2.38;;
25079;SDS011;13071;48.868;9.996;2023-12-14T01:39:52;6.43;;;2.53;;
25079;SDS011;13071;48.868;9.996;2023-12-14T01:42:18;4.38;;;2.60;;
25079;SDS011;13071;48.868;9.996;2023-12-14T01:44:44;3.40;;;2.47;;
25079;SDS011;13071;48.868;9.996;2023-12-14T01:47:12;7.60;;;2.88;;
25079;SDS011;13071;48.868;9.996;2023-12-14T01:49:38;4.70;;;2.85;;
25079;SDS011;13071;48.868;9.996;2023-12-14T01:52:06;3.85;;;2.60;;
25079;SDS011;13071;48.868;9.996;2023-12-14T01:54:32;4.90;;;3.15;;
25079;SDS011;13071;48.868;9.996;2023-12-14T01:56:59;6.90;;;3.00;;
25079;SDS011;13071;48.868;9.996;2023-12-14T01:59:26;8.38;;;2.90;;
25079;SDS011;13071;48.868;9.996;2023-12-14T02:01:52;3.97;;;2.70;;
25079;SDS011;13071;48.868;9.996;2023-12-14T02:04:22;5.20;;;2.95;;
25079;SDS011;13071;48.868;9.996;2023-12-14T02:06:49;10.32;;;3.45;;
25079;SDS011;13071;48.868;9.996;2023-12-14T02:09:15;5.68;;;3.08;;
25079;SDS011;13071;48.868;9.996;2023-12-14T02:11:42;3.70;;;2.60;;
25079;SDS011;13071;48.868;9.996;2023-12-14T02:14:09;4.93;;;2.85;;
25079;SDS011;13071;48.868;9.996;2023-12-14T02:16:35;5.90;;;3.33;;
25079;SDS011;13071;48.868;9.996;2023-12-14T02:19:03;3.55;;;2.67;;
25079;SDS011;13071;48.868;9.996;2023-12-14T02:21:31;6.70;;;2.65;;
25079;SDS011;13071;48.868;9.996;2023-12-14T02:23:59;4.35;;;2.25;;
25079;SDS011;13071;48.868;9.996;2023-12-14T02:26:25;4.13;;;2.20;;
25079;SDS011;13071;48.868;9.996;2023-12-14T02:28:51;3.53;;;2.03;;
25079;SDS011;13071;48.868;9.996;2023-12-14T02:31:18;4.20;;;2.20;;
25079;SDS011;13071;48.868;9.996;2023-12-14T02:33:45;3.67;;;2.30;;
25079;SDS011;13071;48.868;9.996;2023-12-14T02:36:11;3.00;;;2.10;;
25079;SDS011;13071;48.868;9.996;2023-12-14T02:38:37;4.20;;;2.10;;
25079;SDS011;13071;48.868;9.996;2023-12-14T02:41:05;6.43;;;3.40;;
25079;SDS011;13071;48.868;9.996;2023-12-14T02:43:32;3.70;;;2.25;;
25079;SDS011;13071;48.868;9.996;2023-12-14T02:45:58;4.32;;;2.50;;
25079;SDS011;13071;48.868;9.996;2023-12-14T02:48:27;2.55;;;2.10;;
25079;SDS011;13071;48.868;9.996;2023-12-14T02:50:53;4.07;;;2.25;;
25079;SDS011;13071;48.868;9.996;2023-12-14T02:53:20;3.65;;;2.28;;
25079;SDS011;13071;48.868;9.996;2023-12-14T02:55:46;3.70;;;2.40;;
25079;SDS011;13071;48.868;9.996;2023-12-14T02:58:14;2.78;;;2.25;;
25079;SDS011;13071;48.868;9.996;2023-12-14T03:00:40;3.88;;;2.30;;
25079;SDS011;13071;48.868;9.996;2023-12-14T03:03:06;3.92;;;2.10;;
25079;SDS011;13071;48.868;9.996;2023-12-14T03:05:32;4.55;;;2.95;;
25079;SDS011;13071;48.868;9.996;2023-12-14T03:07:58;4.35;;;2.45;;
25079;SDS011;13071;48.868;9.996;2023-12-14T03:10:24;5.85;;;2.72;;
25079;SDS011;13071;48.868;9.996;2023-12-14T03:12:51;6.22;;;2.60;;
25079;SDS011;13071;48.868;9.996;2023-12-14T03:15:19;5.47;;;2.88;;
25079;SDS011;13071;48.868;9.996;2023-12-14T03:17:45;6.13;;;3.10;;
25079;SDS011;13071;48.868;9.996;2023-12-14T03:20:12;4.22;;;3.08;;
25079;SDS011;13071;48.868;9.996;2023-12-14T03:22:39;4.05;;;2.35;;
25079;SDS011;13071;48.868;9.996;2023-12-14T03:25:06;5.25;;;2.85;;
25079;SDS011;13071;48.868;9.996;2023-12-14T03:27:33;7.55;;;3.65;;
25079;SDS011;13071;48.868;9.996;2023-12-14T03:29:59;3.75;;;2.53;;
25079;SDS011;13071;48.868;9.996;2023-12-14T03:32:27;4.68;;;2.90;;
25079;SDS011;13071;48.868;9.996;2023-12-14T03:34:53;7.18;;;3.08;;
25079;SDS011;13071;48.868;9.996;2023-12-14T03:37:20;4.38;;;2.90;;
25079;SDS011;13071;48.868;9.996;2023-12-14T03:39:46;6.50;;;3.85;;
25079;SDS011;13071;48.868;9.996;2023-12-14T03:42:13;5.38;;;3.17;;
25079;SDS011;13071;48.868;9.996;2023-12-14T03:44:39;6.25;;;2.85;;
25079;SDS011;13071;48.868;9.996;2023-12-14T03:47:05;4.57;;;2.60;;
25079;SDS011;13071;48.868;9.996;2023-12-14T03:49:37;5.78;;;2.70;;
25079;SDS011;13071;48.868;9.996;2023-12-14T03:52:03;4.72;;;2.80;;
25079;SDS011;13071;48.868;9.996;2023-12-14T03:54:29;3.10;;;2.40;;
25079;SDS011;13071;48.868;9.996;2023-12-14T03:56:56;4.82;;;2.63;;
25079;SDS011;13071;48.868;9.996;2023-12-14T03:59:22;5.50;;;2.95;;
25079;SDS011;13071;48.868;9.996;2023-12-14T04:01:49;7.10;;;3.65;;
25079;SDS011;13071;48.868;9.996;2023-12-14T04:04:15;7.95;;;3.20;;
25079;SDS011;13071;48.868;9.996;2023-12-14T04:06:43;4.57;;;2.88;;
25079;SDS011;13071;48.868;9.996;2023-12-14T04:09:09;5.45;;;3.22;;
25079;SDS011;13071;48.868;9.996;2023-12-14T04:11:36;6.03;;;2.85;;
25079;SDS011;13071;48.868;9.996;2023-12-14T04:14:02;5.35;;;3.03;;
25079;SDS011;13071;48.868;9.996;2023-12-14T04:16:29;4.18;;;2.60;;
25079;SDS011;13071;48.868;9.996;2023-12-14T04:18:55;5.00;;;3.10;;
25079;SDS011;13071;48.868;9.996;2023-12-14T04:21:22;8.82;;;3.03;;
25079;SDS011;13071;48.868;9.996;2023-12-14T04:23:50;3.95;;;2.85;;
25079;SDS011;13071;48.868;9.996;2023-12-14T04:26:16;7.50;;;3.22;;
25079;SDS011;13071;48.868;9.996;2023-12-14T04:28:43;6.70;;;3.15;;
25079;SDS011;13071;48.868;9.996;2023-12-14T04:31:11;5.88;;;3.50;;
25079;SDS011;13071;48.868;9.996;2023-12-14T04:33:37;7.80;;;3.33;;
25079;SDS011;13071;48.868;9.996;2023-12-14T04:36:04;8.50;;;3.72;;
25079;SDS011;13071;48.868;9.996;2023-12-14T04:38:30;6.32;;;3.45;;
25079;SDS011;13071;48.868;9.996;2023-12-14T04:40:58;5.32;;;3.05;;
25079;SDS011;13071;48.868;9.996;2023-12-14T04:43:24;7.70;;;3.20;;
25079;SDS011;13071;48.868;9.996;2023-12-14T04:45:54;7.85;;;3.60;;
25079;SDS011;13071;48.868;9.996;2023-12-14T04:48:20;7.65;;;3.88;;
25079;SDS011;13071;48.868;9.996;2023-12-14T04:50:47;8.38;;;3.78;;
25079;SDS011;13071;48.868;9.996;2023-12-14T04:53:14;9.48;;;3.85;;
25079;SDS011;13071;48.868;9.996;2023-12-14T04:55:40;7.85;;;3.80;;
25079;SDS011;13071;48.868;9.996;2023-12-14T04:58:08;9.73;;;3.88;;
25079;SDS011;13071;48.868;9.996;2023-12-14T05:00:34;9.00;;;4.20;;
25079;SDS011;13071;48.868;9.996;2023-12-14T05:03:01;10.32;;;4.68;;
25079;SDS011;13071;48.868;9.996;2023-12-14T05:05:27;7.65;;;3.95;;
25079;SDS011;13071;48.868;9.996;2023-12-14T05:07:54;9.80;;;4.15;;
25079;SDS011;13071;48.868;9.996;2023-12-14T05:10:20;7.63;;;4.30;;
25079;SDS011;13071;48.868;9.996;2023-12-14T05:12:46;6.72;;;3.65;;
25079;SDS011;13071;48.868;9.996;2023-12-14T05:15:14;7.88;;;4.38;;
25079;SDS011;13071;48.868;9.996;2023-12-14T05:17:41;9.82;;;3.38;;
25079;SDS011;13071;48.868;9.996;2023-12-14T05:20:08;11.20;;;4.63;;
25079;SDS011;13071;48.868;9.996;2023-12-14T05:22:34;5.97;;;2.88;;
25079;SDS011;13071;48.868;9.996;2023-12-14T05:25:01;7.93;;;3.92;;
25079;SDS011;13071;48.868;9.996;2023-12-14T05:27:27;7.30;;;3.97;;
25079;SDS011;13071;48.868;9.996;2023-12-14T05:29:53;7.35;;;3.85;;
25079;SDS011;13071;48.868;9.996;2023-12-14T05:32:21;6.97;;;3.78;;
25079;SDS011;13071;48.868;9.996;2023-12-14T05:34:47;6.70;;;3.67;;
25079;SDS011;13071;48.868;9.996;2023-12-14T05:37:14;6.78;;;3.50;;
25079;SDS011;13071;48.868;9.996;2023-12-14T05:39:41;8.02;;;3.58;;
25079;SDS011;13071;48.868;9.996;2023-12-14T05:42:08;6.70;;;3.80;;
25079;SDS011;13071;48.868;9.996;2023-12-14T05:44:34;8.38;;;4.22;;
25079;SDS011;13071;48.868;9.996;2023-12-14T05:47:00;11.75;;;3.67;;
25079;SDS011;13071;48.868;9.996;2023-12-14T05:49:28;8.45;;;3.90;;
25079;SDS011;13071;48.868;9.996;2023-12-14T05:51:55;18.52;;;6.82;;
25079;SDS011;13071;48.868;9.996;2023-12-14T05:54:22;17.58;;;6.90;;
25079;SDS011;13071;48.868;9.996;2023-12-14T05:56:48;12.73;;;5.40;;
25079;SDS011;13071;48.868;9.996;2023-12-14T05:59:14;14.52;;;6.47;;
25079;SDS011;13071;48.868;9.996;2023-12-14T06:01:41;20.08;;;6.60;;
25079;SDS011;13071;48.868;9.996;2023-12-14T06:04:08;14.88;;;5.65;;
25079;SDS011;13071;48.868;9.996;2023-12-14T06:06:35;11.60;;;5.18;;
25079;SDS011;13071;48.868;9.996;2023-12-14T06:09:03;10.57;;;5.15;;
25079;SDS011;13071;48.868;9.996;2023-12-14T06:11:31;11.65;;;5.45;;
25079;SDS011;13071;48.868;9.996;2023-12-14T06:13:57;13.50;;;5.78;;
25079;SDS011;13071;48.868;9.996;2023-12-14T06:16:24;10.80;;;5.28;;
25079;SDS011;13071;48.868;9.996;2023-12-14T06:18:51;11.77;;;4.80;;
25079;SDS011;13071;48.868;9.996;2023-12-14T06:21:18;10.40;;;4.50;;
25079;SDS011;13071;48.868;9.996;2023-12-14T06:23:45;10.25;;;4.85;;
25079;SDS011;13071;48.868;9.996;2023-12-14T06:26:12;12.88;;;4.90;;
25079;SDS011;13071;48.868;9.996;2023-12-14T06:28:38;10.43;;;4.75;;
25079;SDS011;13071;48.868;9.996;2023-12-14T06:31:05;10.48;;;5.05;;
25079;SDS011;13071;48.868;9.996;2023-12-14T06:33:32;11.23;;;4.65;;
25079;SDS011;13071;48.868;9.996;2023-12-14T06:36:02;9.75;;;4.68;;
25079;SDS011;13071;48.868;9.996;2023-12-14T06:38:28;11.13;;;4.55;;
25079;SDS011;13071;48.868;9.996;2023-12-14T06:40:56;11.82;;;4.95;;
25079;SDS011;13071;48.868;9.996;2023-12-14T06:43:22;7.40;;;3.78;;
25079;SDS011;13071;48.868;9.996;2023-12-14T06:45:49;10.43;;;4.53;;
25079;SDS011;13071;48.868;9.996;2023-12-14T06:48:15;12.88;;;4.78;;
25079;SDS011;13071;48.868;9.996;2023-12-14T06:50:42;9.75;;;4.30;;
25079;SDS011;13071;48.868;9.996;2023-12-14T06:53:08;8.82;;;4.70;;
25079;SDS011;13071;48.868;9.996;2023-12-14T06:55:34;10.55;;;4.68;;
25079;SDS011;13071;48.868;9.996;2023-12-14T06:58:02;13.57;;;4.53;;
25079;SDS011;13071;48.868;9.996;2023-12-14T07:00:29;8.55;;;4.40;;
25079;SDS011;13071;48.868;9.996;2023-12-14T07:02:55;9.35;;;4.45;;
25079;SDS011;13071;48.868;9.996;2023-12-14T07:05:21;12.48;;;4.93;;
25079;SDS011;13071;48.868;9.996;2023-12-14T07:07:48;9.65;;;4.85;;
25079;SDS011;13071;48.868;9.996;2023-12-14T07:10:14;8.10;;;4.70;;
25079;SDS011;13071;48.868;9.996;2023-12-14T07:12:41;12.25;;;4.75;;
25079;SDS011;13071;48.868;9.996;2023-12-14T07:15:09;10.30;;;4.57;;
25079;SDS011;13071;48.868;9.996;2023-12-14T07:17:35;10.35;;;4.80;;
25079;SDS011;13071;48.868;9.996;2023-12-14T07:20:01;10.45;;;5.05;;
25079;SDS011;13071;48.868;9.996;2023-12-14T07:22:28;11.85;;;5.05;;
25079;SDS011;13071;48.868;9.996;2023-12-14T07:24:55;10.95;;;4.53;;
25079;SDS011;13071;48.868;9.996;2023-12-14T07:27:21;10.45;;;5.45;;
25079;SDS011;13071;48.868;9.996;2023-12-14T07:29:47;12.93;;;4.90;;
25079;SDS011;13071;48.868;9.996;2023-12-14T07:32:15;8.00;;;4.10;;
25079;SDS011;13071;48.868;9.996;2023-12-14T07:34:41;9.77;;;4.05;;
25079;SDS011;13071;48.868;9.996;2023-12-14T07:37:09;11.23;;;4.78;;
25079;SDS011;13071;48.868;9.996;2023-12-14T07:39:36;10.25;;;4.45;;
25079;SDS011;13071;48.868;9.996;2023-12-14T07:42:03;13.65;;;4.80;;
25079;SDS011;13071;48.868;9.996;2023-12-14T07:44:29;9.07;;;4.70;;
25079;SDS011;13071;48.868;9.996;2023-12-14T07:46:56;10.18;;;5.25;;
25079;SDS011;13071;48.868;9.996;2023-12-14T07:49:23;9.75;;;4.50;;
25079;SDS011;13071;48.868;9.996;2023-12-14T07:51:50;11.90;;;5.03;;
25079;SDS011;13071;48.868;9.996;2023-12-14T07:54:16;12.43;;;5.25;;
25079;SDS011;13071;48.868;9.996;2023-12-14T07:56:43;14.05;;;6.03;;
25079;SDS011;13071;48.868;9.996;2023-12-14T07:59:09;14.93;;;5.75;;
25079;SDS011;13071;48.868;9.996;2023-12-14T08:01:36;14.65;;;6.38;;
25079;SDS011;13071;48.868;9.996;2023-12-14T08:04:02;12.50;;;6.25;;
25079;SDS011;13071;48.868;9.996;2023-12-14T08:06:30;18.52;;;8.07;;
25079;SDS011;13071;48.868;9.996;2023-12-14T08:08:56;14.77;;;6.90;;
25079;SDS011;13071;48.868;9.996;2023-12-14T08:11:23;15.55;;;6.07;;
25079;SDS011;13071;48.868;9.996;2023-12-14T08:13:49;15.63;;;7.05;;
25079;SDS011;13071;48.868;9.996;2023-12-14T08:16:16;15.20;;;6.65;;
25079;SDS011;13071;48.868;9.996;2023-12-14T08:18:43;18.33;;;6.72;;
25079;SDS011;13071;48.868;9.996;2023-12-14T08:21:11;17.77;;;8.63;;
25079;SDS011;13071;48.868;9.996;2023-12-14T08:23:38;18.83;;;8.18;;
25079;SDS011;13071;48.868;9.996;2023-12-14T08:26:05;15.15;;;6.78;;
25079;SDS011;13071;48.868;9.996;2023-12-14T08:28:33;15.50;;;6.78;;
25079;SDS011;13071;48.868;9.996;2023-12-14T08:30:59;16.45;;;6.93;;
25079;SDS011;13071;48.868;9.996;2023-12-14T08:33:27;14.05;;;6.28;;
25079;SDS011;13071;48.868;9.996;2023-12-14T08:35:54;16.52;;;7.20;;
25079;SDS011;13071;48.868;9.996;2023-12-14T08:38:20;14.60;;;6.15;;
25079;SDS011;13071;48.868;9.996;2023-12-14T08:40:48;14.88;;;6.65;;
25079;SDS011;13071;48.868;9.996;2023-12-14T08:43:14;12.45;;;6.13;;
25079;SDS011;13071;48.868;9.996;2023-12-14T08:45:41;13.05;;;5.82;;
25079;SDS011;13071;48.868;9.996;2023-12-14T08:48:07;16.70;;;7.20;;
25079;SDS011;13071;48.868;9.996;2023-12-14T08:50:33;15.48;;;6.20;;
25079;SDS011;13071;48.868;9.996;2023-12-14T08:53:00;16.48;;;6.70;;
25079;SDS011;13071;48.868;9.996;2023-12-14T08:55:26;13.82;;;6.32;;
25079;SDS011;13071;48.868;9.996;2023-12-14T08:57:54;12.85;;;5.90;;
25079;SDS011;13071;48.868;9.996;2023-12-14T09:00:21;17.58;;;7.20;;
25079;SDS011;13071;48.868;9.996;2023-12-14T09:02:48;16.73;;;7.47;;
25079;SDS011;13071;48.868;9.996;2023-12-14T09:05:15;19.67;;;7.28;;
25079;SDS011;13071;48.868;9.996;2023-12-14T09:07:44;15.35;;;7.38;;
25079;SDS011;13071;48.868;9.996;2023-12-14T09:10:10;19.20;;;8.18;;
25079;SDS011;13071;48.868;9.996;2023-12-14T09:12:37;15.38;;;6.90;;
25079;SDS011;13071;48.868;9.996;2023-12-14T09:15:05;17.63;;;6.88;;
25079;SDS011;13071;48.868;9.996;2023-12-14T09:17:32;17.05;;;6.90;;
25079;SDS011;13071;48.868;9.996;2023-12-14T09:19:58;14.45;;;6.80;;
25079;SDS011;13071;48.868;9.996;2023-12-14T09:22:25;15.27;;;6.72;;
25079;SDS011;13071;48.868;9.996;2023-12-14T09:24:52;14.13;;;6.72;;
25079;SDS011;13071;48.868;9.996;2023-12-14T09:27:18;14.00;;;6.78;;
25079;SDS011;13071;48.868;9.996;2023-12-14T09:29:44;14.68;;;6.75;;
25079;SDS011;13071;48.868;9.996;2023-12-14T09:32:12;20.40;;;7.25;;
25079;SDS011;13071;48.868;9.996;2023-12-14T09:34:38;16.02;;;6.95;;
25079;SDS011;13071;48.868;9.996;2023-12-14T09:37:05;18.27;;;7.10;;
25079;SDS011;13071;48.868;9.996;2023-12-14T09:39:31;18.33;;;7.78;;
25079;SDS011;13071;48.868;9.996;2023-12-14T09:42:01;20.70;;;8.27;;
25079;SDS011;13071;48.868;9.996;2023-12-14T09:44:27;22.77;;;9.20;;
25079;SDS011;13071;48.868;9.996;2023-12-14T09:46:54;35.22;;;10.27;;
25079;SDS011;13071;48.868;9.996;2023-12-14T09:49:22;30.25;;;11.20;;
25079;SDS011;13071;48.868;9.996;2023-12-14T09:51:53;31.70;;;11.38;;
25079;SDS011;13071;48.868;9.996;2023-12-14T09:54:19;33.50;;;9.63;;
25079;SDS011;13071;48.868;9.996;2023-12-14T09:56:46;17.88;;;7.20;;
25079;SDS011;13071;48.868;9.996;2023-12-14T09:59:13;18.55;;;8.10;;
25079;SDS011;13071;48.868;9.996;2023-12-14T10:01:39;19.08;;;7.93;;
25079;SDS011;13071;48.868;9.996;2023-12-14T10:04:09;20.23;;;7.22;;
25079;SDS011;13071;48.868;9.996;2023-12-14T10:06:37;17.73;;;6.97;;
25079;SDS011;13071;48.868;9.996;2023-12-14T10:09:03;14.68;;;7.00;;
25079;SDS011;13071;48.868;9.996;2023-12-14T10:11:34;17.23;;;7.20;;
25079;SDS011;13071;48.868;9.996;2023-12-14T10:14:00;20.20;;;6.60;;
25079;SDS011;13071;48.868;9.996;2023-12-14T10:16:30;18.80;;;6.50;;
25079;SDS011;13071;48.868;9.996;2023-12-14T10:18:57;14.35;;;5.95;;
25079;SDS011;13071;48.868;9.996;2023-12-14T10:21:24;19.58;;;6.75;;
25079;SDS011;13071;48.868;9.996;2023-12-14T10:23:52;17.73;;;7.65;;
25079;SDS011;13071;48.868;9.996;2023-12-14T10:26:18;15.68;;;6.57;;
25079;SDS011;13071;48.868;9.996;2023-12-14T10:28:44;14.88;;;7.57;;
25079;SDS011;13071;48.868;9.996;2023-12-14T10:31:11;16.63;;;6.97;;
25079;SDS011;13071;48.868;9.996;2023-12-14T10:33:37;16.20;;;7.35;;
25079;SDS011;13071;48.868;9.996;2023-12-14T10:36:04;18.50;;;7.85;;
25079;SDS011;13071;48.868;9.996;2023-12-14T10:38:32;16.77;;;7.32;;
25079;SDS011;13071;48.868;9.996;2023-12-14T10:40:59;16.42;;;7.43;;
25079;SDS011;13071;48.868;9.996;2023-12-14T10:43:26;14.52;;;7.22;;
25079;SDS011;13071;48.868;9.996;2023-12-14T10:45:53;15.18;;;6.72;;
25079;SDS011;13071;48.868;9.996;2023-12-14T10:48:19;16.77;;;7.38;;
25079;SDS011;13071;48.868;9.996;2023-12-14T10:50:46;18.92;;;6.45;;
25079;SDS011;13071;48.868;9.996;2023-12-14T10:53:14;16.42;;;6.95;;
25079;SDS011;13071;48.868;9.996;2023-12-14T10:55:41;18.90;;;7.20;;
25079;SDS011;13071;48.868;9.996;2023-12-14T10:58:10;19.98;;;6.50;;
25079;SDS011;13071;48.868;9.996;2023-12-14T11:00:38;14.65;;;6.93;;
25079;SDS011;13071;48.868;9.996;2023-12-14T11:03:04;18.08;;;7.05;;
25079;SDS011;13071;48.868;9.996;2023-12-14T11:05:32;14.70;;;6.82;;
25079;SDS011;13071;48.868;9.996;2023-12-14T11:08:00;17.75;;;6.55;;
25079;SDS011;13071;48.868;9.996;2023-12-14T11:10:35;17.85;;;6.82;;
25079;SDS011;13071;48.868;9.996;2023-12-14T11:13:02;12.88;;;5.93;;
25079;SDS011;13071;48.868;9.996;2023-12-14T11:15:33;12.93;;;6.22;;
25079;SDS011;13071;48.868;9.996;2023-12-14T11:20:48;18.13;;;6.63;;
25079;SDS011;13071;48.868;9.996;2023-12-14T11:23:15;16.45;;;6.88;;
25079;SDS011;13071;48.868;9.996;2023-12-14T11:25:43;14.35;;;6.38;;
25079;SDS011;13071;48.868;9.996;2023-12-14T11:28:10;15.57;;;6.57;;
25079;SDS011;13071;48.868;9.996;2023-12-14T11:30:39;13.80;;;6.43;;
25079;SDS011;13071;48.868;9.996;2023-12-14T11:33:06;12.38;;;6.18;;
25079;SDS011;13071;48.868;9.996;2023-12-14T11:35:32;16.33;;;7.22;;
25079;SDS011;13071;48.868;9.996;2023-12-14T11:37:58;12.32;;;6.22;;
25079;SDS011;13071;48.868;9.996;2023-12-14T11:40:27;11.00;;;4.93;;
25079;SDS011;13071;48.868;9.996;2023-12-14T11:42:57;12.65;;;5.00;;
25079;SDS011;13071;48.868;9.996;2023-12-14T11:45:24;8.30;;;4.43;;
25079;SDS011;13071;48.868;9.996;2023-12-14T11:47:52;11.13;;;4.93;;
25079;SDS011;13071;48.868;9.996;2023-12-14T11:50:18;8.95;;;3.90;;
25079;SDS011;13071;48.868;9.996;2023-12-14T11:52:45;9.15;;;5.03;;
25079;SDS011;13071;48.868;9.996;2023-12-14T11:55:11;9.20;;;4.53;;
25079;SDS011;13071;48.868;9.996;2023-12-14T11:57:38;11.95;;;4.75;;
25079;SDS011;13071;48.868;9.996;2023-12-14T12:00:05;12.82;;;4.70;;
25079;SDS011;13071;48.868;9.996;2023-12-14T12:02:32;12.93;;;5.40;;
25079;SDS011;13071;48.868;9.996;2023-12-14T12:05:01;14.02;;;7.60;;
25079;SDS011;13071;48.868;9.996;2023-12-14T12:07:27;13.95;;;6.55;;
25079;SDS011;13071;48.868;9.996;2023-12-14T12:09:54;27.00;;;12.60;;
25079;SDS011;13071;48.868;9.996;2023-12-14T12:12:20;9.70;;;5.25;;
25079;SDS011;13071;48.868;9.996;2023-12-14T12:14:47;12.45;;;6.70;;
25079;SDS011;13071;48.868;9.996;2023-12-14T12:17:14;12.13;;;5.80;;
25079;SDS011;13071;48.868;9.996;2023-12-14T12:19:41;14.05;;;7.90;;
25079;SDS011;13071;48.868;9.996;2023-12-14T12:22:09;192.35;;;54.42;;
25079;SDS011;13071;48.868;9.996;2023-12-14T12:24:35;219.18;;;55.78;;
25079;SDS011;13071;48.868;9.996;2023-12-14T12:27:02;600.05;;;199.65;;
25079;SDS011;13071;48.868;9.996;2023-12-14T12:29:29;673.85;;;244.25;;
25079;SDS011;13071;48.868;9.996;2023-12-14T12:31:54;95.32;;;32.75;;
25079;SDS011;13071;48.868;9.996;2023-12-14T12:34:21;107.50;;;37.63;;
25079;SDS011;13071;48.868;9.996;2023-12-14T12:36:47;64.72;;;26.40;;
25079;SDS011;13071;48.868;9.996;2023-12-14T12:39:15;136.18;;;57.60;;
25079;SDS011;13071;48.868;9.996;2023-12-14T12:41:42;18.75;;;9.23;;
25079;SDS011;13071;48.868;9.996;2023-12-14T12:44:08;16.88;;;8.40;;
25079;SDS011;13071;48.868;9.996;2023-12-14T12:46:34;40.47;;;22.05;;
25079;SDS011;13071;48.868;9.996;2023-12-14T12:49:01;13.82;;;6.13;;
25079;SDS011;13071;48.868;9.996;2023-12-14T12:51:28;12.60;;;6.72;;
25079;SDS011;13071;48.868;9.996;2023-12-14T12:53:54;27.90;;;10.32;;
25079;SDS011;13071;48.868;9.996;2023-12-14T12:56:23;13.80;;;5.70;;
25079;SDS011;13071;48.868;9.996;2023-12-14T12:58:50;15.43;;;5.95;;
25079;SDS011;13071;48.868;9.996;2023-12-14T13:01:18;10.63;;;5.25;;
25079;SDS011;13071;48.868;9.996;2023-12-14T13:03:45;12.88;;;5.80;;
25079;SDS011;13071;48.868;9.996;2023-12-14T13:06:11;11.82;;;6.30;;
25079;SDS011;13071;48.868;9.996;2023-12-14T13:08:37;11.80;;;6.13;;
25079;SDS011;13071;48.868;9.996;2023-12-14T13:11:04;12.77;;;4.97;;
25079;SDS011;13071;48.868;9.996;2023-12-14T13:13:32;12.30;;;6.05;;
25079;SDS011;13071;48.868;9.996;2023-12-14T13:15:58;12.82;;;5.82;;
25079;SDS011;13071;48.868;9.996;2023-12-14T13:18:24;11.90;;;5.05;;
25079;SDS011;13071;48.868;9.996;2023-12-14T13:20:51;15.32;;;6.28;;
25079;SDS011;13071;48.868;9.996;2023-12-14T13:23:17;11.60;;;4.95;;
25079;SDS011;13071;48.868;9.996;2023-12-14T13:25:43;11.50;;;5.00;;
25079;SDS011;13071;48.868;9.996;2023-12-14T13:28:10;11.23;;;5.03;;
25079;SDS011;13071;48.868;9.996;2023-12-14T13:30:38;11.90;;;5.53;;
25079;SDS011;13071;48.868;9.996;2023-12-14T13:33:05;11.18;;;5.47;;
25079;SDS011;13071;48.868;9.996;2023-12-14T13:35:34;14.52;;;5.75;;
25079;SDS011;13071;48.868;9.996;2023-12-14T13:38:00;12.38;;;5.13;;
25079;SDS011;13071;48.868;9.996;2023-12-14T13:40:27;11.43;;;5.57;;
25079;SDS011;13071;48.868;9.996;2023-12-14T13:42:53;13.10;;;5.38;;
25079;SDS011;13071;48.868;9.996;2023-12-14T13:45:19;11.50;;;4.72;;
25079;SDS011;13071;48.868;9.996;2023-12-14T13:47:47;17.25;;;6.63;;
25079;SDS011;13071;48.868;9.996;2023-12-14T13:50:13;12.75;;;5.50;;
25079;SDS011;13071;48.868;9.996;2023-12-14T13:52:40;11.60;;;5.82;;
25079;SDS011;13071;48.868;9.996;2023-12-14T13:55:06;10.73;;;5.85;;
25079;SDS011;13071;48.868;9.996;2023-12-14T13:57:33;18.90;;;6.38;;
25079;SDS011;13071;48.868;9.996;2023-12-14T13:59:59;13.45;;;5.30;;
25079;SDS011;13071;48.868;9.996;2023-12-14T14:02:25;12.63;;;5.60;;
25079;SDS011;13071;48.868;9.996;2023-12-14T14:04:55;17.20;;;6.75;;
25079;SDS011;13071;48.868;9.996;2023-12-14T14:07:21;13.70;;;6.30;;
25079;SDS011;13071;48.868;9.996;2023-12-14T14:09:48;14.15;;;6.45;;
25079;SDS011;13071;48.868;9.996;2023-12-14T14:12:14;15.60;;;6.22;;
25079;SDS011;13071;48.868;9.996;2023-12-14T14:14:40;14.88;;;6.45;;
25079;SDS011;13071;48.868;9.996;2023-12-14T14:17:07;12.48;;;6.15;;
25079;SDS011;13071;48.868;9.996;2023-12-14T14:19:33;13.32;;;5.53;;
25079;SDS011;13071;48.868;9.996;2023-12-14T14:22:03;14.70;;;6.15;;
25079;SDS011;13071;48.868;9.996;2023-12-14T14:24:30;12.90;;;5.72;;
25079;SDS011;13071;48.868;9.996;2023-12-14T14:26:57;13.90;;;6.28;;
25079;SDS011;13071;48.868;9.996;2023-12-14T14:29:24;13.73;;;6.53;;
25079;SDS011;13071;48.868;9.996;2023-12-14T14:31:50;15.60;;;6.53;;
25079;SDS011;13071;48.868;9.996;2023-12-14T14:34:17;13.13;;;5.70;;
25079;SDS011;13071;48.868;9.996;2023-12-14T14:36:43;12.40;;;5.88;;
25079;SDS011;13071;48.868;9.996;2023-12-14T14:39:12;13.68;;;6.30;;